sensor_id;sensor_type;location;lat;lon;timestamp;P1;durP1;ratioP1;P2;durP2;ratioP2
80127;SDS011;69440;52.118;5.408;2023-05-07T00:01:16;9.52;;;6.70;;
80127;SDS011;69440;52.118;5.408;2023-05-07T00:03:44;8.45;;;6.40;;
80127;SDS011;69440;52.118;5.408;2023-05-07T00:06:11;8.15;;;6.70;;
80127;SDS011;69440;52.118;5.408;2023-05-07T00:08:38;8.80;;;6.25;;
80127;SDS011;69440;52.118;5.408;2023-05-07T00:11:05;7.97;;;5.80;;
80127;SDS011;69440;52.118;5.408;2023-05-07T00:13:31;7.32;;;5.93;;
80127;SDS011;69440;52.118;5.408;2023-05-07T00:16:02;8.10;;;7.30;;
80127;SDS011;69440;52.118;5.408;2023-05-07T00:18:28;7.90;;;6.72;;
80127;SDS011;69440;52.118;5.408;2023-05-07T00:20:55;11.23;;;6.32;;
80127;SDS011;69440;52.118;5.408;2023-05-07T00:23:22;8.68;;;6.80;;
80127;SDS011;69440;52.118;5.408;2023-05-07T00:25:49;7.07;;;5.72;;
80127;SDS011;69440;52.118;5.408;2023-05-07T00:28:15;9.27;;;6.95;;
80127;SDS011;69440;52.118;5.408;2023-05-07T00:30:42;9.00;;;7.15;;
80127;SDS011;69440;52.118;5.408;2023-05-07T00:33:08;8.73;;;6.05;;
80127;SDS011;69440;52.118;5.408;2023-05-07T00:35:34;9.68;;;6.95;;
80127;SDS011;69440;52.118;5.408;2023-05-07T00:38:01;9.93;;;6.50;;
80127;SDS011;69440;52.118;5.408;2023-05-07T00:40:27;9.60;;;6.25;;
80127;SDS011;69440;52.118;5.408;2023-05-07T00:42:54;11.05;;;6.28;;
80127;SDS011;69440;52.118;5.408;2023-05-07T00:45:26;8.02;;;6.00;;
80127;SDS011;69440;52.118;5.408;2023-05-07T00:47:54;9.02;;;6.05;;
80127;SDS011;69440;52.118;5.408;2023-05-07T00:50:21;9.52;;;6.68;;
80127;SDS011;69440;52.118;5.408;2023-05-07T00:52:48;9.57;;;6.53;;
80127;SDS011;69440;52.118;5.408;2023-05-07T00:55:15;7.05;;;6.03;;
80127;SDS011;69440;52.118;5.408;2023-05-07T00:57:41;8.57;;;6.00;;
80127;SDS011;69440;52.118;5.408;2023-05-07T01:00:08;6.57;;;5.60;;
80127;SDS011;69440;52.118;5.408;2023-05-07T01:02:36;7.85;;;6.40;;
80127;SDS011;69440;52.118;5.408;2023-05-07T01:05:02;7.90;;;6.70;;
80127;SDS011;69440;52.118;5.408;2023-05-07T01:07:32;7.30;;;5.85;;
80127;SDS011;69440;52.118;5.408;2023-05-07T01:10:00;8.82;;;6.50;;
80127;SDS011;69440;52.118;5.408;2023-05-07T01:12:29;9.02;;;6.45;;
80127;SDS011;69440;52.118;5.408;2023-05-07T01:14:57;7.30;;;5.38;;
80127;SDS011;69440;52.118;5.408;2023-05-07T01:17:24;7.32;;;6.53;;
80127;SDS011;69440;52.118;5.408;2023-05-07T01:19:51;9.55;;;6.13;;
80127;SDS011;69440;52.118;5.408;2023-05-07T01:22:52;8.13;;;6.45;;
80127;SDS011;69440;52.118;5.408;2023-05-07T01:25:12;8.93;;;6.55;;
80127;SDS011;69440;52.118;5.408;2023-05-07T01:27:39;7.00;;;5.60;;
80127;SDS011;69440;52.118;5.408;2023-05-07T01:30:06;7.32;;;6.55;;
80127;SDS011;69440;52.118;5.408;2023-05-07T01:32:40;8.25;;;6.97;;
80127;SDS011;69440;52.118;5.408;2023-05-07T01:35:14;9.50;;;5.85;;
80127;SDS011;69440;52.118;5.408;2023-05-07T01:40:11;7.20;;;6.45;;
80127;SDS011;69440;52.118;5.408;2023-05-07T01:42:38;6.38;;;5.75;;
80127;SDS011;69440;52.118;5.408;2023-05-07T01:45:06;10.48;;;7.03;;
80127;SDS011;69440;52.118;5.408;2023-05-07T01:47:32;9.50;;;6.28;;
80127;SDS011;69440;52.118;5.408;2023-05-07T01:49:59;8.73;;;6.47;;
80127;SDS011;69440;52.118;5.408;2023-05-07T01:52:27;7.82;;;6.50;;
80127;SDS011;69440;52.118;5.408;2023-05-07T01:54:54;7.70;;;6.75;;
80127;SDS011;69440;52.118;5.408;2023-05-07T01:57:20;9.07;;;6.32;;
80127;SDS011;69440;52.118;5.408;2023-05-07T01:59:47;9.55;;;6.68;;
80127;SDS011;69440;52.118;5.408;2023-05-07T02:02:13;7.85;;;6.70;;
80127;SDS011;69440;52.118;5.408;2023-05-07T02:04:40;9.32;;;7.00;;
80127;SDS011;69440;52.118;5.408;2023-05-07T02:07:06;8.57;;;6.53;;
80127;SDS011;69440;52.118;5.408;2023-05-07T02:09:33;9.35;;;7.60;;
80127;SDS011;69440;52.118;5.408;2023-05-07T02:11:59;8.65;;;6.90;;
80127;SDS011;69440;52.118;5.408;2023-05-07T02:14:25;8.45;;;6.13;;
80127;SDS011;69440;52.118;5.408;2023-05-07T02:16:52;8.98;;;6.90;;
80127;SDS011;69440;52.118;5.408;2023-05-07T02:19:18;7.80;;;6.72;;
80127;SDS011;69440;52.118;5.408;2023-05-07T02:21:47;8.60;;;7.00;;
80127;SDS011;69440;52.118;5.408;2023-05-07T02:24:14;8.65;;;7.50;;
80127;SDS011;69440;52.118;5.408;2023-05-07T02:26:40;8.07;;;7.07;;
80127;SDS011;69440;52.118;5.408;2023-05-07T02:29:07;6.57;;;5.88;;
80127;SDS011;69440;52.118;5.408;2023-05-07T02:31:33;7.25;;;6.25;;
80127;SDS011;69440;52.118;5.408;2023-05-07T02:34:00;7.35;;;6.32;;
80127;SDS011;69440;52.118;5.408;2023-05-07T02:36:27;9.18;;;7.70;;
80127;SDS011;69440;52.118;5.408;2023-05-07T02:38:53;8.20;;;6.95;;
80127;SDS011;69440;52.118;5.408;2023-05-07T02:41:20;9.70;;;6.82;;
80127;SDS011;69440;52.118;5.408;2023-05-07T02:43:47;11.15;;;8.27;;
80127;SDS011;69440;52.118;5.408;2023-05-07T02:46:13;9.27;;;6.93;;
80127;SDS011;69440;52.118;5.408;2023-05-07T02:48:40;8.85;;;6.80;;
80127;SDS011;69440;52.118;5.408;2023-05-07T02:51:06;9.48;;;7.68;;
80127;SDS011;69440;52.118;5.408;2023-05-07T02:53:33;10.10;;;7.97;;
80127;SDS011;69440;52.118;5.408;2023-05-07T02:55:59;10.07;;;7.68;;
80127;SDS011;69440;52.118;5.408;2023-05-07T02:58:27;10.23;;;8.27;;
80127;SDS011;69440;52.118;5.408;2023-05-07T03:00:54;10.95;;;7.00;;
80127;SDS011;69440;52.118;5.408;2023-05-07T03:03:23;9.02;;;7.40;;
80127;SDS011;69440;52.118;5.408;2023-05-07T03:05:50;11.38;;;7.07;;
80127;SDS011;69440;52.118;5.408;2023-05-07T03:08:16;8.77;;;6.63;;
80127;SDS011;69440;52.118;5.408;2023-05-07T03:10:42;10.10;;;8.02;;
80127;SDS011;69440;52.118;5.408;2023-05-07T03:13:09;10.85;;;7.30;;
80127;SDS011;69440;52.118;5.408;2023-05-07T03:15:35;9.65;;;8.10;;
80127;SDS011;69440;52.118;5.408;2023-05-07T03:18:02;13.55;;;8.60;;
80127;SDS011;69440;52.118;5.408;2023-05-07T03:20:29;11.32;;;7.45;;
80127;SDS011;69440;52.118;5.408;2023-05-07T03:22:56;8.90;;;7.82;;
80127;SDS011;69440;52.118;5.408;2023-05-07T03:25:22;10.77;;;7.50;;
80127;SDS011;69440;52.118;5.408;2023-05-07T03:27:49;10.52;;;8.32;;
80127;SDS011;69440;52.118;5.408;2023-05-07T03:30:15;12.80;;;7.25;;
80127;SDS011;69440;52.118;5.408;2023-05-07T03:32:42;9.50;;;8.50;;
80127;SDS011;69440;52.118;5.408;2023-05-07T03:35:08;10.43;;;8.63;;
80127;SDS011;69440;52.118;5.408;2023-05-07T03:37:37;10.48;;;8.15;;
80127;SDS011;69440;52.118;5.408;2023-05-07T03:40:04;8.57;;;6.95;;
80127;SDS011;69440;52.118;5.408;2023-05-07T03:42:31;12.25;;;8.98;;
80127;SDS011;69440;52.118;5.408;2023-05-07T03:44:57;11.82;;;8.80;;
80127;SDS011;69440;52.118;5.408;2023-05-07T03:47:24;9.00;;;7.57;;
80127;SDS011;69440;52.118;5.408;2023-05-07T03:49:50;11.60;;;8.52;;
80127;SDS011;69440;52.118;5.408;2023-05-07T03:52:19;10.15;;;8.10;;
80127;SDS011;69440;52.118;5.408;2023-05-07T03:54:49;11.25;;;7.65;;
80127;SDS011;69440;52.118;5.408;2023-05-07T03:57:16;10.73;;;7.75;;
80127;SDS011;69440;52.118;5.408;2023-05-07T03:59:42;9.45;;;7.95;;
80127;SDS011;69440;52.118;5.408;2023-05-07T04:02:08;9.77;;;7.72;;
80127;SDS011;69440;52.118;5.408;2023-05-07T04:04:35;14.13;;;8.13;;
80127;SDS011;69440;52.118;5.408;2023-05-07T04:07:01;10.93;;;7.75;;
80127;SDS011;69440;52.118;5.408;2023-05-07T04:09:29;10.32;;;8.35;;
80127;SDS011;69440;52.118;5.408;2023-05-07T04:11:55;15.35;;;7.95;;
80127;SDS011;69440;52.118;5.408;2023-05-07T04:14:21;10.10;;;7.78;;
80127;SDS011;69440;52.118;5.408;2023-05-07T04:16:48;11.38;;;7.95;;
80127;SDS011;69440;52.118;5.408;2023-05-07T04:19:14;10.68;;;7.70;;
80127;SDS011;69440;52.118;5.408;2023-05-07T04:21:41;10.38;;;8.68;;
80127;SDS011;69440;52.118;5.408;2023-05-07T04:24:07;10.98;;;7.82;;
80127;SDS011;69440;52.118;5.408;2023-05-07T04:26:34;12.50;;;8.88;;
80127;SDS011;69440;52.118;5.408;2023-05-07T04:29:00;10.95;;;8.57;;
80127;SDS011;69440;52.118;5.408;2023-05-07T04:31:27;11.32;;;8.07;;
80127;SDS011;69440;52.118;5.408;2023-05-07T04:33:54;13.77;;;8.07;;
80127;SDS011;69440;52.118;5.408;2023-05-07T04:36:20;10.50;;;8.05;;
80127;SDS011;69440;52.118;5.408;2023-05-07T04:38:47;11.13;;;7.75;;
80127;SDS011;69440;52.118;5.408;2023-05-07T04:41:13;10.85;;;8.80;;
80127;SDS011;69440;52.118;5.408;2023-05-07T04:43:40;10.50;;;8.48;;
80127;SDS011;69440;52.118;5.408;2023-05-07T04:46:07;12.60;;;9.32;;
80127;SDS011;69440;52.118;5.408;2023-05-07T04:48:34;13.02;;;9.45;;
80127;SDS011;69440;52.118;5.408;2023-05-07T04:51:00;17.05;;;9.68;;
80127;SDS011;69440;52.118;5.408;2023-05-07T04:53:27;13.85;;;9.48;;
80127;SDS011;69440;52.118;5.408;2023-05-07T04:55:56;11.77;;;9.30;;
80127;SDS011;69440;52.118;5.408;2023-05-07T04:58:23;13.52;;;8.82;;
80127;SDS011;69440;52.118;5.408;2023-05-07T05:00:50;12.73;;;9.63;;
80127;SDS011;69440;52.118;5.408;2023-05-07T05:03:16;14.30;;;9.90;;
80127;SDS011;69440;52.118;5.408;2023-05-07T05:05:43;13.98;;;9.20;;
80127;SDS011;69440;52.118;5.408;2023-05-07T05:08:09;15.32;;;9.18;;
80127;SDS011;69440;52.118;5.408;2023-05-07T05:10:36;11.77;;;7.90;;
80127;SDS011;69440;52.118;5.408;2023-05-07T05:13:03;11.02;;;9.15;;
80127;SDS011;69440;52.118;5.408;2023-05-07T05:15:29;11.15;;;9.23;;
80127;SDS011;69440;52.118;5.408;2023-05-07T05:17:59;13.02;;;9.00;;
80127;SDS011;69440;52.118;5.408;2023-05-07T05:20:25;11.13;;;8.57;;
80127;SDS011;69440;52.118;5.408;2023-05-07T05:22:52;12.38;;;9.35;;
80127;SDS011;69440;52.118;5.408;2023-05-07T05:25:18;10.13;;;7.93;;
80127;SDS011;69440;52.118;5.408;2023-05-07T05:27:44;10.80;;;8.80;;
80127;SDS011;69440;52.118;5.408;2023-05-07T05:30:11;13.00;;;9.30;;
80127;SDS011;69440;52.118;5.408;2023-05-07T05:32:38;11.65;;;8.95;;
80127;SDS011;69440;52.118;5.408;2023-05-07T05:35:05;14.95;;;9.93;;
80127;SDS011;69440;52.118;5.408;2023-05-07T05:37:32;13.35;;;9.65;;
80127;SDS011;69440;52.118;5.408;2023-05-07T05:39:58;12.25;;;9.50;;
80127;SDS011;69440;52.118;5.408;2023-05-07T05:42:24;11.73;;;8.70;;
80127;SDS011;69440;52.118;5.408;2023-05-07T05:44:51;12.63;;;9.35;;
80127;SDS011;69440;52.118;5.408;2023-05-07T05:47:17;15.18;;;9.18;;
80127;SDS011;69440;52.118;5.408;2023-05-07T05:49:44;14.25;;;10.07;;
80127;SDS011;69440;52.118;5.408;2023-05-07T05:52:11;15.73;;;9.65;;
80127;SDS011;69440;52.118;5.408;2023-05-07T05:54:39;12.38;;;9.75;;
80127;SDS011;69440;52.118;5.408;2023-05-07T05:57:05;12.13;;;8.55;;
80127;SDS011;69440;52.118;5.408;2023-05-07T05:59:32;14.82;;;10.48;;
80127;SDS011;69440;52.118;5.408;2023-05-07T06:01:58;12.27;;;9.00;;
80127;SDS011;69440;52.118;5.408;2023-05-07T06:04:25;12.63;;;9.18;;
80127;SDS011;69440;52.118;5.408;2023-05-07T06:06:51;14.93;;;9.43;;
80127;SDS011;69440;52.118;5.408;2023-05-07T06:09:18;17.45;;;10.75;;
80127;SDS011;69440;52.118;5.408;2023-05-07T06:11:44;12.50;;;9.98;;
80127;SDS011;69440;52.118;5.408;2023-05-07T06:14:11;12.35;;;10.32;;
80127;SDS011;69440;52.118;5.408;2023-05-07T06:16:37;12.95;;;10.20;;
80127;SDS011;69440;52.118;5.408;2023-05-07T06:19:04;12.68;;;10.18;;
80127;SDS011;69440;52.118;5.408;2023-05-07T06:21:30;12.65;;;9.93;;
80127;SDS011;69440;52.118;5.408;2023-05-07T06:23:57;13.63;;;9.57;;
80127;SDS011;69440;52.118;5.408;2023-05-07T06:26:24;14.40;;;9.68;;
80127;SDS011;69440;52.118;5.408;2023-05-07T06:28:51;16.67;;;9.70;;
80127;SDS011;69440;52.118;5.408;2023-05-07T06:31:18;13.25;;;9.98;;
80127;SDS011;69440;52.118;5.408;2023-05-07T06:33:46;14.85;;;11.05;;
80127;SDS011;69440;52.118;5.408;2023-05-07T06:36:14;13.77;;;9.02;;
80127;SDS011;69440;52.118;5.408;2023-05-07T06:38:41;14.13;;;9.55;;
80127;SDS011;69440;52.118;5.408;2023-05-07T06:41:07;13.80;;;10.43;;
80127;SDS011;69440;52.118;5.408;2023-05-07T06:43:33;13.73;;;9.75;;
80127;SDS011;69440;52.118;5.408;2023-05-07T06:46:00;15.38;;;10.95;;
80127;SDS011;69440;52.118;5.408;2023-05-07T06:48:26;13.32;;;9.85;;
80127;SDS011;69440;52.118;5.408;2023-05-07T06:50:53;14.30;;;10.38;;
80127;SDS011;69440;52.118;5.408;2023-05-07T06:53:21;19.23;;;11.77;;
80127;SDS011;69440;52.118;5.408;2023-05-07T06:55:48;15.40;;;11.63;;
80127;SDS011;69440;52.118;5.408;2023-05-07T06:58:14;15.10;;;11.45;;
80127;SDS011;69440;52.118;5.408;2023-05-07T07:00:41;13.57;;;11.02;;
80127;SDS011;69440;52.118;5.408;2023-05-07T07:03:07;14.00;;;10.88;;
80127;SDS011;69440;52.118;5.408;2023-05-07T07:05:34;16.92;;;12.50;;
80127;SDS011;69440;52.118;5.408;2023-05-07T07:08:00;13.65;;;11.35;;
80127;SDS011;69440;52.118;5.408;2023-05-07T07:10:27;15.93;;;11.45;;
80127;SDS011;69440;52.118;5.408;2023-05-07T07:12:53;14.38;;;10.40;;
80127;SDS011;69440;52.118;5.408;2023-05-07T07:15:20;14.43;;;11.10;;
80127;SDS011;69440;52.118;5.408;2023-05-07T07:17:51;15.48;;;11.30;;
80127;SDS011;69440;52.118;5.408;2023-05-07T07:20:17;14.75;;;10.13;;
80127;SDS011;69440;52.118;5.408;2023-05-07T07:22:44;16.48;;;10.63;;
80127;SDS011;69440;52.118;5.408;2023-05-07T07:25:10;15.25;;;10.20;;
80127;SDS011;69440;52.118;5.408;2023-05-07T07:27:38;14.07;;;10.73;;
80127;SDS011;69440;52.118;5.408;2023-05-07T07:30:06;15.95;;;10.52;;
80127;SDS011;69440;52.118;5.408;2023-05-07T07:32:32;18.35;;;11.75;;
80127;SDS011;69440;52.118;5.408;2023-05-07T07:34:59;15.50;;;11.88;;
80127;SDS011;69440;52.118;5.408;2023-05-07T07:37:25;15.02;;;11.27;;
80127;SDS011;69440;52.118;5.408;2023-05-07T07:39:52;17.15;;;11.90;;
80127;SDS011;69440;52.118;5.408;2023-05-07T07:42:18;16.38;;;11.95;;
80127;SDS011;69440;52.118;5.408;2023-05-07T07:44:45;17.65;;;11.93;;
80127;SDS011;69440;52.118;5.408;2023-05-07T07:47:11;14.60;;;11.60;;
80127;SDS011;69440;52.118;5.408;2023-05-07T07:49:38;13.77;;;11.45;;
80127;SDS011;69440;52.118;5.408;2023-05-07T07:52:07;13.82;;;10.50;;
80127;SDS011;69440;52.118;5.408;2023-05-07T07:54:33;14.18;;;10.27;;
80127;SDS011;69440;52.118;5.408;2023-05-07T07:57:00;15.93;;;11.98;;
80127;SDS011;69440;52.118;5.408;2023-05-07T07:59:27;14.25;;;10.15;;
80127;SDS011;69440;52.118;5.408;2023-05-07T08:01:54;15.15;;;10.35;;
80127;SDS011;69440;52.118;5.408;2023-05-07T08:04:22;13.55;;;10.82;;
80127;SDS011;69440;52.118;5.408;2023-05-07T08:06:49;14.25;;;11.82;;
80127;SDS011;69440;52.118;5.408;2023-05-07T08:09:15;13.88;;;11.25;;
80127;SDS011;69440;52.118;5.408;2023-05-07T08:11:42;17.25;;;11.45;;
80127;SDS011;69440;52.118;5.408;2023-05-07T08:14:08;16.73;;;12.60;;
80127;SDS011;69440;52.118;5.408;2023-05-07T08:16:35;15.15;;;10.95;;
80127;SDS011;69440;52.118;5.408;2023-05-07T08:19:01;15.88;;;12.07;;
80127;SDS011;69440;52.118;5.408;2023-05-07T08:21:28;15.25;;;11.00;;
80127;SDS011;69440;52.118;5.408;2023-05-07T08:23:54;16.55;;;11.82;;
80127;SDS011;69440;52.118;5.408;2023-05-07T08:26:20;17.15;;;12.65;;
80127;SDS011;69440;52.118;5.408;2023-05-07T08:28:47;18.33;;;13.93;;
80127;SDS011;69440;52.118;5.408;2023-05-07T08:31:13;16.35;;;13.45;;
80127;SDS011;69440;52.118;5.408;2023-05-07T08:33:40;17.67;;;12.90;;
80127;SDS011;69440;52.118;5.408;2023-05-07T08:36:06;16.85;;;12.25;;
80127;SDS011;69440;52.118;5.408;2023-05-07T08:38:33;17.23;;;12.35;;
80127;SDS011;69440;52.118;5.408;2023-05-07T08:40:59;16.90;;;10.88;;
80127;SDS011;69440;52.118;5.408;2023-05-07T08:43:26;16.80;;;11.48;;
80127;SDS011;69440;52.118;5.408;2023-05-07T08:45:54;15.90;;;12.55;;
80127;SDS011;69440;52.118;5.408;2023-05-07T08:48:21;15.63;;;11.43;;
80127;SDS011;69440;52.118;5.408;2023-05-07T08:50:51;16.75;;;12.23;;
80127;SDS011;69440;52.118;5.408;2023-05-07T08:53:18;17.27;;;12.25;;
80127;SDS011;69440;52.118;5.408;2023-05-07T08:55:46;19.63;;;12.15;;
80127;SDS011;69440;52.118;5.408;2023-05-07T08:58:14;15.77;;;13.05;;
80127;SDS011;69440;52.118;5.408;2023-05-07T09:00:41;17.00;;;13.70;;
80127;SDS011;69440;52.118;5.408;2023-05-07T09:03:08;16.48;;;13.27;;
80127;SDS011;69440;52.118;5.408;2023-05-07T09:05:34;16.67;;;13.18;;
80127;SDS011;69440;52.118;5.408;2023-05-07T09:08:02;17.45;;;12.43;;
80127;SDS011;69440;52.118;5.408;2023-05-07T09:10:29;17.77;;;13.40;;
80127;SDS011;69440;52.118;5.408;2023-05-07T09:12:55;17.60;;;12.93;;
80127;SDS011;69440;52.118;5.408;2023-05-07T09:15:22;15.30;;;11.30;;
80127;SDS011;69440;52.118;5.408;2023-05-07T09:17:48;16.77;;;12.18;;
80127;SDS011;69440;52.118;5.408;2023-05-07T09:20:15;16.75;;;11.43;;
80127;SDS011;69440;52.118;5.408;2023-05-07T09:22:42;17.88;;;12.38;;
80127;SDS011;69440;52.118;5.408;2023-05-07T09:25:10;16.23;;;12.23;;
80127;SDS011;69440;52.118;5.408;2023-05-07T09:27:37;14.40;;;10.45;;
80127;SDS011;69440;52.118;5.408;2023-05-07T09:30:07;15.25;;;11.98;;
80127;SDS011;69440;52.118;5.408;2023-05-07T09:32:34;18.10;;;11.65;;
80127;SDS011;69440;52.118;5.408;2023-05-07T09:35:04;14.45;;;11.18;;
80127;SDS011;69440;52.118;5.408;2023-05-07T09:37:31;16.02;;;11.57;;
80127;SDS011;69440;52.118;5.408;2023-05-07T09:39:58;16.95;;;12.82;;
80127;SDS011;69440;52.118;5.408;2023-05-07T09:42:24;14.80;;;11.15;;
80127;SDS011;69440;52.118;5.408;2023-05-07T09:44:52;15.75;;;10.90;;
80127;SDS011;69440;52.118;5.408;2023-05-07T09:47:19;14.38;;;11.80;;
80127;SDS011;69440;52.118;5.408;2023-05-07T09:49:47;15.50;;;11.25;;
80127;SDS011;69440;52.118;5.408;2023-05-07T09:52:14;14.95;;;10.80;;
80127;SDS011;69440;52.118;5.408;2023-05-07T09:54:42;16.35;;;12.18;;
80127;SDS011;69440;52.118;5.408;2023-05-07T09:57:10;15.85;;;12.75;;
80127;SDS011;69440;52.118;5.408;2023-05-07T09:59:38;17.83;;;11.43;;
80127;SDS011;69440;52.118;5.408;2023-05-07T10:02:08;16.08;;;12.10;;
80127;SDS011;69440;52.118;5.408;2023-05-07T10:04:36;16.83;;;11.95;;
80127;SDS011;69440;52.118;5.408;2023-05-07T10:07:03;17.95;;;12.93;;
80127;SDS011;69440;52.118;5.408;2023-05-07T10:09:33;17.58;;;11.82;;
80127;SDS011;69440;52.118;5.408;2023-05-07T10:12:05;16.23;;;11.52;;
80127;SDS011;69440;52.118;5.408;2023-05-07T10:14:32;15.38;;;13.00;;
80127;SDS011;69440;52.118;5.408;2023-05-07T10:16:59;15.38;;;13.05;;
80127;SDS011;69440;52.118;5.408;2023-05-07T10:19:29;16.35;;;13.02;;
80127;SDS011;69440;52.118;5.408;2023-05-07T10:21:59;19.92;;;12.50;;
80127;SDS011;69440;52.118;5.408;2023-05-07T10:24:33;16.15;;;12.05;;
80127;SDS011;69440;52.118;5.408;2023-05-07T10:27:04;16.10;;;12.43;;
80127;SDS011;69440;52.118;5.408;2023-05-07T10:30:19;17.70;;;13.43;;
80127;SDS011;69440;52.118;5.408;2023-05-07T10:32:43;21.67;;;13.35;;
80127;SDS011;69440;52.118;5.408;2023-05-07T10:35:21;19.45;;;13.98;;
80127;SDS011;69440;52.118;5.408;2023-05-07T10:37:55;15.82;;;11.48;;
80127;SDS011;69440;52.118;5.408;2023-05-07T10:40:22;15.98;;;12.00;;
80127;SDS011;69440;52.118;5.408;2023-05-07T10:42:58;17.25;;;12.88;;
80127;SDS011;69440;52.118;5.408;2023-05-07T10:45:27;18.90;;;13.18;;
80127;SDS011;69440;52.118;5.408;2023-05-07T10:48:05;14.60;;;12.70;;
80127;SDS011;69440;52.118;5.408;2023-05-07T10:51:17;16.05;;;11.32;;
80127;SDS011;69440;52.118;5.408;2023-05-07T10:53:48;16.88;;;10.75;;
80127;SDS011;69440;52.118;5.408;2023-05-07T10:58:44;15.93;;;11.88;;
80127;SDS011;69440;52.118;5.408;2023-05-07T11:01:11;14.95;;;12.18;;
80127;SDS011;69440;52.118;5.408;2023-05-07T11:07:33;13.48;;;10.82;;
80127;SDS011;69440;52.118;5.408;2023-05-07T11:09:54;14.65;;;10.98;;
80127;SDS011;69440;52.118;5.408;2023-05-07T11:15:04;15.77;;;12.73;;
80127;SDS011;69440;52.118;5.408;2023-05-07T11:17:35;16.65;;;11.75;;
80127;SDS011;69440;52.118;5.408;2023-05-07T11:20:18;16.63;;;12.13;;
80127;SDS011;69440;52.118;5.408;2023-05-07T11:22:46;14.20;;;11.93;;
80127;SDS011;69440;52.118;5.408;2023-05-07T11:25:19;14.75;;;10.98;;
80127;SDS011;69440;52.118;5.408;2023-05-07T11:27:46;15.35;;;11.35;;
80127;SDS011;69440;52.118;5.408;2023-05-07T11:30:19;17.05;;;13.25;;
80127;SDS011;69440;52.118;5.408;2023-05-07T11:32:47;17.55;;;12.45;;
80127;SDS011;69440;52.118;5.408;2023-05-07T11:35:14;15.77;;;12.35;;
80127;SDS011;69440;52.118;5.408;2023-05-07T11:37:41;15.88;;;12.68;;
80127;SDS011;69440;52.118;5.408;2023-05-07T11:40:10;15.75;;;12.63;;
80127;SDS011;69440;52.118;5.408;2023-05-07T11:42:38;15.05;;;11.95;;
80127;SDS011;69440;52.118;5.408;2023-05-07T11:45:06;15.32;;;12.45;;
80127;SDS011;69440;52.118;5.408;2023-05-07T11:47:33;15.25;;;12.63;;
80127;SDS011;69440;52.118;5.408;2023-05-07T11:50:04;16.10;;;11.52;;
80127;SDS011;69440;52.118;5.408;2023-05-07T11:52:33;15.15;;;11.60;;
80127;SDS011;69440;52.118;5.408;2023-05-07T11:55:01;15.63;;;12.18;;
80127;SDS011;69440;52.118;5.408;2023-05-07T11:57:29;15.15;;;11.98;;
80127;SDS011;69440;52.118;5.408;2023-05-07T11:59:57;15.70;;;12.45;;
80127;SDS011;69440;52.118;5.408;2023-05-07T12:02:25;17.30;;;12.30;;
80127;SDS011;69440;52.118;5.408;2023-05-07T12:04:52;17.55;;;14.27;;
80127;SDS011;69440;52.118;5.408;2023-05-07T12:07:19;15.88;;;12.95;;
80127;SDS011;69440;52.118;5.408;2023-05-07T12:09:46;14.82;;;12.50;;
80127;SDS011;69440;52.118;5.408;2023-05-07T12:12:13;15.88;;;12.77;;
80127;SDS011;69440;52.118;5.408;2023-05-07T12:14:44;14.55;;;12.93;;
80127;SDS011;69440;52.118;5.408;2023-05-07T12:17:12;15.73;;;12.88;;
80127;SDS011;69440;52.118;5.408;2023-05-07T12:19:40;17.08;;;12.65;;
80127;SDS011;69440;52.118;5.408;2023-05-07T12:22:09;13.40;;;11.38;;
80127;SDS011;69440;52.118;5.408;2023-05-07T12:24:46;14.10;;;11.98;;
80127;SDS011;69440;52.118;5.408;2023-05-07T12:27:13;15.48;;;12.00;;
80127;SDS011;69440;52.118;5.408;2023-05-07T12:29:44;14.27;;;12.23;;
80127;SDS011;69440;52.118;5.408;2023-05-07T12:32:18;12.63;;;11.05;;
80127;SDS011;69440;52.118;5.408;2023-05-07T12:34:49;16.40;;;11.15;;
80127;SDS011;69440;52.118;5.408;2023-05-07T12:37:57;13.00;;;11.27;;
80127;SDS011;69440;52.118;5.408;2023-05-07T12:40:50;13.55;;;9.90;;
80127;SDS011;69440;52.118;5.408;2023-05-07T12:46:21;13.38;;;10.93;;
80127;SDS011;69440;52.118;5.408;2023-05-07T12:48:50;11.40;;;10.18;;
80127;SDS011;69440;52.118;5.408;2023-05-07T12:51:23;11.10;;;9.48;;
80127;SDS011;69440;52.118;5.408;2023-05-07T13:03:36;9.75;;;7.50;;
80127;SDS011;69440;52.118;5.408;2023-05-07T13:06:26;8.98;;;7.90;;
80127;SDS011;69440;52.118;5.408;2023-05-07T13:09:32;12.18;;;7.68;;
80127;SDS011;69440;52.118;5.408;2023-05-07T13:13:21;9.30;;;7.10;;
80127;SDS011;69440;52.118;5.408;2023-05-07T13:16:41;10.90;;;7.20;;
80127;SDS011;69440;52.118;5.408;2023-05-07T13:20:29;10.43;;;6.88;;
80127;SDS011;69440;52.118;5.408;2023-05-07T13:23:15;9.35;;;7.57;;
80127;SDS011;69440;52.118;5.408;2023-05-07T13:26:05;10.30;;;7.90;;
80127;SDS011;69440;52.118;5.408;2023-05-07T13:28:45;9.95;;;7.70;;
80127;SDS011;69440;52.118;5.408;2023-05-07T13:31:12;9.52;;;8.10;;
80127;SDS011;69440;52.118;5.408;2023-05-07T13:33:38;9.93;;;8.52;;
80127;SDS011;69440;52.118;5.408;2023-05-07T13:36:05;14.10;;;9.73;;
80127;SDS011;69440;52.118;5.408;2023-05-07T13:38:32;13.48;;;9.02;;
80127;SDS011;69440;52.118;5.408;2023-05-07T13:40:58;14.60;;;9.35;;
80127;SDS011;69440;52.118;5.408;2023-05-07T13:43:24;11.57;;;8.25;;
80127;SDS011;69440;52.118;5.408;2023-05-07T13:45:51;9.38;;;8.27;;
80127;SDS011;69440;52.118;5.408;2023-05-07T13:48:17;11.68;;;9.18;;
80127;SDS011;69440;52.118;5.408;2023-05-07T13:50:45;11.25;;;9.82;;
80127;SDS011;69440;52.118;5.408;2023-05-07T13:53:11;10.10;;;9.00;;
80127;SDS011;69440;52.118;5.408;2023-05-07T13:55:38;11.77;;;9.77;;
80127;SDS011;69440;52.118;5.408;2023-05-07T13:58:04;11.00;;;9.68;;
80127;SDS011;69440;52.118;5.408;2023-05-07T14:00:32;11.02;;;9.82;;
80127;SDS011;69440;52.118;5.408;2023-05-07T14:02:59;13.13;;;10.95;;
80127;SDS011;69440;52.118;5.408;2023-05-07T14:05:26;13.73;;;11.10;;
80127;SDS011;69440;52.118;5.408;2023-05-07T14:07:54;13.80;;;11.45;;
80127;SDS011;69440;52.118;5.408;2023-05-07T14:10:23;14.05;;;11.73;;
80127;SDS011;69440;52.118;5.408;2023-05-07T14:12:49;13.65;;;11.20;;
80127;SDS011;69440;52.118;5.408;2023-05-07T14:15:16;14.27;;;10.75;;
80127;SDS011;69440;52.118;5.408;2023-05-07T14:17:43;15.25;;;11.18;;
80127;SDS011;69440;52.118;5.408;2023-05-07T14:20:10;16.45;;;11.90;;
80127;SDS011;69440;52.118;5.408;2023-05-07T14:22:38;15.32;;;11.85;;
80127;SDS011;69440;52.118;5.408;2023-05-07T14:25:05;15.50;;;11.93;;
80127;SDS011;69440;52.118;5.408;2023-05-07T14:27:33;14.05;;;10.93;;
80127;SDS011;69440;52.118;5.408;2023-05-07T14:30:00;15.77;;;11.63;;
80127;SDS011;69440;52.118;5.408;2023-05-07T14:32:26;14.75;;;12.27;;
80127;SDS011;69440;52.118;5.408;2023-05-07T14:34:53;13.70;;;11.45;;
80127;SDS011;69440;52.118;5.408;2023-05-07T14:37:19;14.65;;;10.85;;
80127;SDS011;69440;52.118;5.408;2023-05-07T14:39:46;13.23;;;10.40;;
80127;SDS011;69440;52.118;5.408;2023-05-07T14:42:16;13.45;;;11.68;;
80127;SDS011;69440;52.118;5.408;2023-05-07T14:44:42;18.00;;;11.93;;
80127;SDS011;69440;52.118;5.408;2023-05-07T14:47:10;12.18;;;10.18;;
80127;SDS011;69440;52.118;5.408;2023-05-07T14:49:37;13.68;;;9.95;;
80127;SDS011;69440;52.118;5.408;2023-05-07T14:52:04;15.13;;;9.80;;
80127;SDS011;69440;52.118;5.408;2023-05-07T14:54:35;10.23;;;8.93;;
80127;SDS011;69440;52.118;5.408;2023-05-07T14:57:04;10.93;;;8.82;;
80127;SDS011;69440;52.118;5.408;2023-05-07T14:59:32;11.77;;;8.73;;
80127;SDS011;69440;52.118;5.408;2023-05-07T15:01:58;10.40;;;8.38;;
80127;SDS011;69440;52.118;5.408;2023-05-07T15:04:25;12.68;;;8.65;;